createdAt,value
2023-04-10T00:02:02.376Z,6.87
2023-04-10T00:04:52.575Z,6.93
2023-04-10T00:07:41.483Z,6.51
2023-04-10T00:10:31.723Z,6.85
2023-04-10T00:13:20.305Z,6.39
2023-04-10T00:16:09.028Z,6.23
2023-04-10T00:18:57.591Z,6.06
2023-04-10T00:21:47.483Z,6.13
2023-04-10T00:24:36.038Z,6.16
2023-04-10T00:27:24.585Z,6.20
2023-04-10T00:30:13.123Z,6.31
2023-04-10T00:33:01.697Z,6.30
2023-04-10T00:35:50.423Z,6.29
2023-04-10T00:38:40.362Z,6.39
2023-04-10T00:41:29.513Z,6.31
2023-04-10T00:44:18.084Z,6.37
2023-04-10T00:47:06.933Z,6.22
2023-04-10T00:49:55.605Z,6.32
2023-04-10T00:52:44.137Z,5.83
2023-04-10T00:55:34.041Z,6.18
2023-04-10T00:58:22.533Z,6.06
2023-04-10T01:01:11.343Z,5.98
2023-04-10T01:04:00.522Z,5.93
2023-04-10T01:06:54.666Z,5.93
2023-04-10T01:09:46.021Z,5.87
2023-04-10T01:12:49.453Z,5.76
2023-04-10T01:15:44.493Z,5.71
2023-04-10T01:18:36.129Z,5.59
2023-04-10T01:21:24.869Z,5.59
2023-04-10T01:24:23.065Z,5.60
2023-04-10T01:27:17.374Z,5.55
2023-04-10T01:30:10.304Z,5.41
2023-04-10T01:33:00.851Z,5.41
2023-04-10T01:35:51.673Z,5.37
2023-04-10T01:38:43.547Z,5.34
2023-04-10T01:41:32.792Z,5.30
2023-04-10T01:44:23.172Z,5.23
2023-04-10T01:47:15.599Z,5.18
2023-04-10T01:50:05.166Z,5.21
2023-04-10T01:52:53.860Z,5.16
2023-04-10T01:55:42.581Z,5.10
2023-04-10T01:58:31.482Z,5.02
2023-04-10T02:01:29.065Z,4.98
2023-04-10T02:04:19.892Z,4.99
2023-04-10T02:07:11.252Z,5.00
2023-04-10T02:10:03.543Z,4.95
2023-04-10T02:12:55.722Z,4.94
2023-04-10T02:15:47.725Z,4.91
2023-04-10T02:18:36.844Z,4.87
2023-04-10T02:21:27.467Z,4.81
2023-04-10T02:24:16.138Z,4.81
2023-04-10T02:27:04.858Z,4.51
2023-04-10T02:29:53.444Z,4.69
2023-04-10T02:32:42.021Z,4.70
2023-04-10T02:35:30.632Z,4.79
2023-04-10T02:38:20.594Z,4.82
2023-04-10T02:41:09.158Z,4.85
2023-04-10T02:43:57.696Z,4.55
2023-04-10T02:46:47.070Z,4.79
2023-04-10T02:49:36.160Z,4.54
2023-04-10T02:52:24.707Z,4.66
2023-04-10T02:55:14.606Z,4.71
2023-04-10T02:58:03.094Z,4.73
2023-04-10T03:00:51.876Z,4.64
2023-04-10T03:03:40.758Z,4.61
2023-04-10T03:06:29.472Z,4.46
2023-04-10T03:09:17.998Z,4.51
2023-04-10T03:12:07.871Z,4.64
2023-04-10T03:14:56.388Z,4.64
2023-04-10T03:17:45.042Z,4.54
2023-04-10T03:20:34.034Z,4.44
2023-04-10T03:23:22.575Z,4.36
2023-04-10T03:26:11.228Z,4.49
2023-04-10T03:29:01.639Z,4.36
2023-04-10T03:31:50.266Z,4.35
2023-04-10T03:34:38.760Z,4.35
2023-04-10T03:37:28.385Z,4.27
2023-04-10T03:40:16.975Z,4.31
2023-04-10T03:43:05.695Z,4.28
2023-04-10T03:45:55.631Z,4.28
2023-04-10T03:48:44.110Z,4.35
2023-04-10T03:51:32.712Z,4.32
2023-04-10T03:54:21.264Z,4.15
2023-04-10T03:57:09.796Z,4.21
2023-04-10T03:59:58.307Z,4.22
2023-04-10T04:02:50.609Z,4.22
2023-04-10T04:05:39.570Z,4.24
2023-04-10T04:08:28.119Z,4.20
2023-04-10T04:11:16.584Z,4.13
2023-04-10T04:14:05.073Z,4.09
2023-04-10T04:16:53.684Z,4.12
2023-04-10T04:19:43.636Z,4.14
2023-04-10T04:22:32.430Z,4.04
2023-04-10T04:25:21.039Z,4.09
2023-04-10T04:28:09.807Z,4.28
2023-04-10T04:30:58.694Z,4.39
2023-04-10T04:33:47.190Z,4.41
2023-04-10T04:36:37.127Z,4.40
2023-04-10T04:39:25.892Z,4.33
2023-04-10T04:42:14.504Z,4.34
2023-04-10T04:45:03.102Z,4.40
2023-04-10T04:47:51.805Z,4.25
2023-04-10T04:50:41.411Z,4.32
2023-04-10T04:53:31.207Z,4.22
2023-04-10T04:56:19.729Z,4.23
2023-04-10T04:59:08.258Z,4.17
2023-04-10T05:01:56.964Z,4.27
2023-04-10T05:04:45.697Z,4.30
2023-04-10T05:07:34.236Z,4.36
2023-04-10T05:10:24.223Z,4.44
2023-04-10T05:13:12.777Z,4.47
2023-04-10T05:16:01.381Z,4.58
2023-04-10T05:18:50.078Z,4.62
2023-04-10T05:21:38.635Z,4.67
2023-04-10T05:24:27.172Z,4.52
2023-04-10T05:27:18.873Z,4.63
2023-04-10T05:30:08.557Z,4.11
2023-04-10T05:32:57.150Z,4.75
2023-04-10T05:35:47.294Z,4.85
2023-04-10T05:38:35.860Z,4.95
2023-04-10T05:41:24.453Z,5.02
2023-04-10T05:44:14.338Z,5.16
2023-04-10T05:47:02.886Z,5.28
2023-04-10T05:49:51.432Z,5.37
2023-04-10T05:52:39.952Z,5.48
2023-04-10T05:55:28.542Z,5.69
2023-04-10T05:58:17.083Z,5.86
2023-04-10T06:01:07.669Z,5.97
2023-04-10T06:03:56.354Z,6.28
2023-04-10T06:06:44.957Z,6.66
2023-04-10T06:09:33.437Z,6.96
2023-04-10T06:12:21.931Z,7.21
2023-04-10T06:15:11.089Z,7.43
2023-04-10T06:18:00.992Z,7.55
2023-04-10T06:20:49.555Z,7.65
2023-04-10T06:23:38.066Z,7.74
2023-04-10T06:26:26.601Z,7.86
2023-04-10T06:29:15.131Z,8.06
2023-04-10T06:32:04.020Z,8.44
2023-04-10T06:34:53.985Z,8.78
2023-04-10T06:37:43.363Z,8.89
2023-04-10T06:40:34.009Z,9.35
2023-04-10T06:43:22.544Z,9.51
2023-04-10T06:46:11.406Z,9.68
2023-04-10T06:49:00.008Z,9.90
2023-04-10T06:51:49.883Z,10.07
2023-04-10T06:54:38.433Z,10.14
2023-04-10T06:57:27.102Z,10.47
2023-04-10T07:00:16.366Z,10.65
2023-04-10T07:03:05.073Z,10.72
2023-04-10T07:05:53.677Z,10.92
2023-04-10T07:08:43.540Z,11.06
2023-04-10T07:11:32.040Z,11.26
2023-04-10T07:14:20.602Z,11.41
2023-04-10T07:17:09.685Z,11.63
2023-04-10T07:19:58.382Z,11.65
2023-04-10T07:22:46.894Z,11.90
2023-04-10T07:25:37.014Z,12.06
2023-04-10T07:28:25.704Z,12.20
2023-04-10T07:31:14.802Z,12.40
2023-04-10T07:34:04.493Z,12.58
2023-04-10T07:36:53.231Z,12.59
2023-04-10T07:39:41.811Z,12.90
2023-04-10T07:42:31.725Z,12.75
2023-04-10T07:45:20.587Z,12.85
2023-04-10T07:48:09.120Z,13.00
2023-04-10T07:50:58.839Z,13.37
2023-04-10T07:53:47.454Z,13.50
2023-04-10T07:56:36.309Z,13.38
2023-04-10T07:59:26.640Z,13.75
2023-04-10T08:02:15.525Z,13.76
2023-04-10T08:05:04.312Z,14.00
2023-04-10T08:07:52.903Z,14.34
2023-04-10T08:10:41.422Z,14.02
2023-04-10T08:13:30.108Z,14.42
2023-04-10T08:17:05.926Z,14.57
2023-04-10T08:19:54.492Z,14.71
2023-04-10T08:22:43.003Z,14.77
2023-04-10T08:25:32.152Z,14.72
2023-04-10T08:28:21.343Z,15.38
2023-04-10T08:31:09.918Z,15.54
2023-04-10T08:34:00.213Z,15.46
2023-04-10T08:36:49.063Z,15.81
2023-04-10T08:39:37.646Z,15.65
2023-04-10T08:42:26.305Z,15.56
2023-04-10T08:45:14.829Z,15.90
2023-04-10T08:48:04.079Z,15.87
2023-04-10T08:50:54.125Z,15.72
2023-04-10T08:53:45.064Z,15.79
2023-04-10T08:56:35.094Z,15.90
2023-04-10T08:59:23.924Z,15.85
2023-04-10T09:02:12.651Z,15.58
2023-04-10T09:05:01.580Z,15.61
2023-04-10T09:07:52.165Z,15.94
2023-04-10T09:10:40.777Z,16.16
2023-04-10T09:13:39.733Z,15.98
2023-04-10T09:16:30.299Z,16.23
2023-04-10T09:19:30.489Z,16.48
2023-04-10T09:22:19.958Z,15.93
2023-04-10T09:25:30.710Z,16.37
2023-04-10T09:28:19.213Z,16.65
2023-04-10T09:31:28.767Z,16.48
2023-04-10T09:34:18.729Z,16.42
2023-04-10T09:37:07.290Z,16.70
2023-04-10T09:39:56.167Z,16.72
2023-04-10T09:42:46.185Z,16.71
2023-04-10T09:45:48.212Z,16.42
2023-04-10T09:48:37.026Z,16.62
2023-04-10T09:51:29.736Z,16.83
2023-04-10T09:54:18.340Z,16.98
2023-04-10T09:57:08.287Z,16.95
2023-04-10T09:59:59.364Z,17.21
2023-04-10T10:02:49.220Z,17.18
2023-04-10T10:05:39.490Z,17.08
2023-04-10T10:08:28.104Z,17.43
2023-04-10T10:11:19.406Z,17.54
2023-04-10T10:14:13.283Z,17.46
2023-04-10T10:17:07.436Z,17.72
2023-04-10T10:20:02.818Z,17.73
2023-04-10T10:22:51.850Z,17.90
2023-04-10T10:25:40.882Z,17.74
2023-04-10T10:28:29.625Z,17.90
2023-04-10T10:31:18.840Z,18.14
2023-04-10T10:34:09.274Z,18.38
2023-04-10T10:36:59.438Z,18.47
2023-04-10T10:39:54.306Z,18.48
2023-04-10T10:42:48.062Z,18.50
2023-04-10T10:45:41.350Z,18.48
2023-04-10T10:48:30.043Z,18.80
2023-04-10T10:51:20.038Z,18.81
2023-04-10T10:54:28.679Z,18.71
2023-04-10T10:57:46.954Z,18.81
2023-04-10T11:01:10.784Z,19.07
2023-04-10T11:04:00.901Z,18.99
2023-04-10T11:06:52.917Z,19.05
2023-04-10T11:09:49.395Z,19.19
2023-04-10T11:13:16.318Z,19.49
2023-04-10T11:16:06.758Z,19.21
2023-04-10T11:19:14.909Z,19.53
2023-04-10T11:22:08.039Z,19.96
2023-04-10T11:24:58.955Z,19.90
2023-04-10T11:27:52.848Z,20.18
2023-04-10T11:30:41.439Z,20.14
2023-04-10T11:33:29.934Z,20.22
2023-04-10T11:36:18.729Z,20.33
2023-04-10T11:39:09.703Z,20.50
2023-04-10T11:41:58.730Z,20.16
2023-04-10T11:44:48.861Z,19.87
2023-04-10T11:47:37.634Z,19.92
2023-04-10T11:50:32.428Z,19.58
2023-04-10T11:53:21.547Z,20.01
2023-04-10T11:56:19.253Z,19.94
2023-04-10T11:59:10.540Z,19.96
2023-04-10T12:02:07.588Z,20.01
2023-04-10T12:04:59.242Z,19.97
2023-04-10T12:07:47.948Z,20.44
2023-04-10T12:10:46.949Z,20.65
2023-04-10T12:13:37.413Z,20.80
2023-04-10T12:16:27.329Z,20.75
2023-04-10T12:19:17.230Z,20.38
2023-04-10T12:22:06.720Z,20.15
2023-04-10T12:24:55.299Z,20.34
2023-04-10T12:27:49.745Z,20.60
2023-04-10T12:30:39.705Z,20.52
2023-04-10T12:33:28.229Z,20.42
2023-04-10T12:36:22.999Z,20.71
2023-04-10T12:39:23.461Z,21.02
2023-04-10T12:42:13.158Z,21.27
2023-04-10T12:45:02.261Z,21.50
2023-04-10T12:47:53.553Z,21.60
2023-04-10T12:50:48.578Z,21.66
2023-04-10T12:53:44.883Z,21.80
2023-04-10T12:56:42.639Z,21.79
2023-04-10T12:59:32.062Z,21.63
2023-04-10T13:02:21.309Z,21.58
2023-04-10T13:05:11.656Z,21.46
2023-04-10T13:08:00.267Z,21.36
2023-04-10T13:10:49.113Z,21.29
2023-04-10T13:13:37.684Z,21.24
2023-04-10T13:16:26.330Z,21.27
2023-04-10T13:19:14.906Z,21.21
2023-04-10T13:22:04.965Z,21.11
2023-04-10T13:24:53.479Z,20.93
2023-04-10T13:27:41.979Z,20.97
2023-04-10T13:30:31.195Z,21.05
2023-04-10T13:33:19.699Z,21.14
2023-04-10T13:36:08.882Z,21.21
2023-04-10T13:38:58.759Z,21.27
2023-04-10T13:41:47.286Z,21.29
2023-04-10T13:44:35.870Z,21.27
2023-04-10T13:47:24.337Z,21.24
2023-04-10T13:50:13.024Z,21.37
2023-04-10T13:53:01.601Z,21.38
2023-04-10T13:55:51.431Z,21.32
2023-04-10T13:58:39.984Z,21.29
2023-04-10T14:01:28.591Z,21.28
2023-04-10T14:04:17.186Z,21.27
2023-04-10T14:07:05.994Z,21.28
2023-04-10T14:09:54.611Z,21.30
2023-04-10T14:12:44.428Z,21.26
2023-04-10T14:15:32.948Z,21.29
2023-04-10T14:18:21.424Z,21.24
2023-04-10T14:21:09.967Z,21.25
2023-04-10T14:23:59.688Z,21.03
2023-04-10T14:26:48.185Z,21.21
2023-04-10T14:29:44.646Z,21.16
2023-04-10T14:32:39.814Z,21.15
2023-04-10T14:35:28.464Z,21.12
2023-04-10T14:38:16.978Z,21.06
2023-04-10T14:41:05.758Z,21.06
2023-04-10T14:43:54.506Z,21.05
2023-04-10T14:46:44.537Z,21.06
2023-04-10T14:49:33.147Z,21.04
2023-04-10T14:52:21.721Z,20.95
2023-04-10T14:55:11.172Z,20.88
2023-04-10T14:57:59.660Z,20.86
2023-04-10T15:00:48.226Z,20.75
2023-04-10T15:03:38.447Z,20.63
2023-04-10T15:06:28.193Z,20.50
2023-04-10T15:09:16.754Z,20.45
2023-04-10T15:12:05.602Z,20.38
2023-04-10T15:14:54.258Z,20.33
2023-04-10T15:17:42.805Z,20.22
2023-04-10T15:20:32.650Z,20.19
2023-04-10T15:23:21.319Z,20.13
2023-04-10T15:26:12.919Z,20.12
2023-04-10T15:29:01.481Z,20.08
2023-04-10T15:31:51.133Z,20.06
2023-04-10T15:34:39.865Z,19.98
2023-04-10T15:37:29.769Z,19.97
2023-04-10T15:40:18.493Z,19.88
2023-04-10T15:43:07.017Z,19.88
2023-04-10T15:45:56.175Z,19.84
2023-04-10T15:48:45.951Z,19.76
2023-04-10T15:51:34.682Z,19.78
2023-04-10T15:54:24.556Z,19.69
2023-04-10T15:57:13.024Z,19.66
2023-04-10T16:00:02.264Z,19.60
2023-04-10T16:02:51.266Z,19.57
2023-04-10T16:05:40.043Z,19.55
2023-04-10T16:08:28.940Z,19.56
2023-04-10T16:11:18.920Z,19.57
2023-04-10T16:14:07.426Z,19.48
2023-04-10T16:16:55.937Z,19.44
2023-04-10T16:19:44.417Z,19.44
2023-04-10T16:22:32.933Z,19.29
2023-04-10T16:25:22.258Z,19.28
2023-04-10T16:28:12.160Z,19.20
2023-04-10T16:31:00.756Z,19.10
2023-04-10T16:33:49.351Z,19.13
2023-04-10T16:36:38.168Z,19.11
2023-04-10T16:39:26.705Z,19.06
2023-04-10T16:42:15.224Z,18.98
2023-04-10T16:45:05.880Z,18.93
2023-04-10T16:47:54.458Z,18.32
2023-04-10T16:50:43.016Z,18.85
2023-04-10T16:53:31.513Z,18.82
2023-04-10T16:56:20.144Z,18.64
2023-04-10T16:59:08.798Z,18.70
2023-04-10T17:01:58.762Z,18.69
2023-04-10T17:04:47.276Z,18.63
2023-04-10T17:07:36.100Z,18.58
2023-04-10T17:10:24.885Z,18.49
2023-04-10T17:13:13.370Z,18.46
2023-04-10T17:16:01.914Z,18.40
2023-04-10T17:18:51.864Z,18.33
2023-04-10T17:21:40.378Z,18.26
2023-04-10T17:24:31.424Z,18.16
2023-04-10T17:27:20.391Z,18.16
2023-04-10T17:30:12.623Z,18.14
2023-04-10T17:33:01.519Z,18.11
2023-04-10T17:35:52.327Z,17.89
2023-04-10T17:38:41.536Z,18.01
2023-04-10T17:41:30.020Z,17.95
2023-04-10T17:44:19.578Z,17.90
2023-04-10T17:47:08.257Z,17.87
2023-04-10T17:49:57.066Z,17.87
2023-04-10T17:52:46.997Z,17.87
2023-04-10T17:55:41.029Z,17.41
2023-04-10T17:58:29.622Z,17.74
2023-04-10T18:01:26.070Z,17.66
2023-04-10T18:04:15.226Z,17.58
2023-04-10T18:07:03.808Z,17.56
2023-04-10T18:09:53.740Z,17.42
2023-04-10T18:12:43.303Z,17.38
2023-04-10T18:15:31.858Z,17.32
2023-04-10T18:18:20.422Z,17.26
2023-04-10T18:21:09.638Z,17.20
2023-04-10T18:23:58.268Z,16.99
2023-04-10T18:26:49.141Z,16.98
2023-04-10T18:29:42.080Z,16.92
2023-04-10T18:32:30.707Z,16.82
2023-04-10T18:35:19.617Z,16.78
2023-04-10T18:38:08.151Z,16.75
2023-04-10T18:40:57.771Z,16.68
2023-04-10T18:43:54.257Z,16.60
2023-04-10T18:47:01.264Z,16.54
2023-04-10T18:49:52.415Z,16.41
2023-04-10T18:52:41.012Z,16.36
2023-04-10T18:55:29.537Z,16.32
2023-04-10T18:58:18.094Z,16.34
2023-04-10T19:01:08.351Z,16.28
2023-04-10T19:03:57.567Z,16.25
2023-04-10T19:06:46.845Z,15.92
2023-04-10T19:09:35.583Z,16.09
2023-04-10T19:12:28.185Z,16.09
2023-04-10T19:15:19.451Z,16.06
2023-04-10T19:18:09.618Z,16.21
2023-04-10T19:20:59.181Z,16.20
2023-04-10T19:23:47.990Z,16.20
2023-04-10T19:26:37.522Z,16.22
2023-04-10T19:29:26.042Z,16.21
2023-04-10T19:32:14.716Z,16.10
2023-04-10T19:35:05.261Z,16.20
2023-04-10T19:37:57.346Z,16.22
2023-04-10T19:40:45.879Z,16.14
2023-04-10T19:43:34.416Z,16.06
2023-04-10T19:46:23.457Z,16.11
2023-04-10T19:49:12.130Z,16.14
2023-04-10T19:52:02.332Z,16.14
2023-04-10T19:54:50.848Z,16.12
2023-04-10T19:57:39.287Z,16.14
2023-04-10T20:00:27.779Z,16.12
2023-04-10T20:03:16.926Z,16.13
2023-04-10T20:06:07.331Z,16.08
2023-04-10T20:08:59.903Z,16.06
2023-04-10T20:11:51.418Z,15.98
2023-04-10T20:14:39.918Z,16.09
2023-04-10T20:17:28.961Z,16.09
2023-04-10T20:20:17.844Z,16.11
2023-04-10T20:23:06.405Z,16.18
2023-04-10T20:25:56.352Z,15.89
2023-04-10T20:28:44.810Z,16.19
2023-04-10T20:31:34.746Z,16.21
2023-04-10T20:34:23.472Z,16.38
2023-04-10T20:37:13.621Z,16.31
2023-04-10T20:40:02.199Z,16.32
2023-04-10T20:42:52.761Z,16.54
2023-04-10T20:45:41.600Z,16.51
2023-04-10T20:48:30.387Z,16.39
2023-04-10T20:51:19.114Z,16.42
2023-04-10T20:54:07.906Z,16.30
2023-04-10T20:56:59.852Z,16.26
2023-04-10T20:59:49.769Z,16.33
2023-04-10T21:02:38.598Z,16.22
2023-04-10T21:05:27.242Z,16.08
2023-04-10T21:08:15.787Z,16.23
2023-04-10T21:11:04.323Z,16.21
2023-04-10T21:13:52.776Z,16.17
2023-04-10T21:16:42.883Z,16.18
2023-04-10T21:19:31.505Z,16.21
2023-04-10T21:22:19.973Z,16.12
2023-04-10T21:25:09.395Z,16.11
2023-04-10T21:27:57.917Z,16.16
2023-04-10T21:30:46.506Z,16.09
2023-04-10T21:33:36.428Z,16.00
2023-04-10T21:36:24.915Z,16.09
2023-04-10T21:39:13.517Z,16.05
2023-04-10T21:42:02.078Z,16.06
2023-04-10T21:44:50.589Z,16.01
2023-04-10T21:47:39.123Z,16.07
2023-04-10T21:50:28.956Z,16.09
2023-04-10T21:53:17.494Z,16.01
2023-04-10T21:56:06.686Z,15.95
2023-04-10T21:58:55.336Z,15.90
2023-04-10T22:01:44.169Z,15.89
2023-04-10T22:04:33.230Z,15.88
2023-04-10T22:07:24.439Z,15.80
2023-04-10T22:10:12.949Z,15.83
2023-04-10T22:13:01.459Z,15.85
2023-04-10T22:15:49.950Z,15.89
2023-04-10T22:18:38.553Z,15.82
2023-04-10T22:21:27.463Z,15.77
2023-04-10T22:24:17.503Z,15.69
2023-04-10T22:27:06.120Z,15.68
2023-04-10T22:30:03.249Z,15.76
2023-04-10T22:32:57.197Z,15.68
2023-04-10T22:35:46.730Z,15.68
2023-04-10T22:38:35.364Z,15.80
2023-04-10T22:41:25.282Z,15.69
2023-04-10T22:44:13.899Z,15.97
2023-04-10T22:47:02.388Z,16.06
2023-04-10T22:49:50.909Z,16.17
2023-04-10T22:52:39.627Z,16.27
2023-04-10T22:55:28.418Z,16.27
2023-04-10T22:58:18.376Z,16.34
2023-04-10T23:01:08.201Z,16.26
2023-04-10T23:03:56.953Z,16.38
2023-04-10T23:06:45.530Z,16.43
2023-04-10T23:09:34.031Z,16.18
2023-04-10T23:12:22.573Z,16.29
2023-04-10T23:15:12.782Z,16.06
2023-04-10T23:18:01.381Z,15.99
2023-04-10T23:20:50.973Z,15.61
2023-04-10T23:23:39.529Z,15.56
2023-04-10T23:26:28.299Z,15.60
2023-04-10T23:29:17.001Z,15.46
2023-04-10T23:32:07.833Z,15.37
2023-04-10T23:34:56.382Z,15.17
2023-04-10T23:37:44.907Z,15.20
2023-04-10T23:40:33.513Z,15.03
2023-04-10T23:43:22.062Z,14.96
2023-04-10T23:46:10.565Z,15.02
2023-04-10T23:49:00.486Z,14.85
2023-04-10T23:51:49.283Z,14.85
2023-04-10T23:54:37.763Z,14.84
2023-04-10T23:57:26.233Z,14.80
